createdAt,value
2018-06-13T00:00:34.380Z,55.50
2018-06-13T00:03:03.505Z,55.80
2018-06-13T00:05:32.384Z,55.70
2018-06-13T00:08:01.094Z,56.10
2018-06-13T00:10:29.910Z,56.00
2018-06-13T00:12:58.685Z,56.40
2018-06-13T00:15:27.456Z,56.20
2018-06-13T00:17:56.564Z,56.00
2018-06-13T00:20:25.508Z,56.50
2018-06-13T00:22:54.555Z,56.60
2018-06-13T00:25:23.481Z,57.10
2018-06-13T00:27:52.389Z,56.70
2018-06-13T00:30:21.201Z,57.00
2018-06-13T00:32:49.993Z,57.10
2018-06-13T00:35:18.770Z,57.40
2018-06-13T00:37:47.647Z,57.20
2018-06-13T00:40:16.738Z,57.00
2018-06-13T00:42:45.800Z,57.30
2018-06-13T00:45:14.581Z,57.60
2018-06-13T00:47:43.409Z,58.00
2018-06-13T00:50:12.470Z,57.90
2018-06-13T00:52:41.290Z,57.30
2018-06-13T00:55:10.352Z,58.00
2018-06-13T00:57:39.130Z,58.40
2018-06-13T01:00:07.934Z,58.80
2018-06-13T01:05:05.420Z,58.70
2018-06-13T01:07:34.205Z,58.90
2018-06-13T01:10:03.056Z,59.10
2018-06-13T01:12:31.969Z,60.10
2018-06-13T01:15:00.873Z,59.20
2018-06-13T01:17:29.832Z,59.50
2018-06-13T01:19:58.665Z,59.50
2018-06-13T01:22:27.792Z,59.50
2018-06-13T01:24:56.585Z,59.90
2018-06-13T01:27:25.766Z,60.00
2018-06-13T01:29:54.493Z,60.30
2018-06-13T01:32:23.235Z,60.50
2018-06-13T01:34:51.991Z,59.60
2018-06-13T01:37:21.082Z,59.80
2018-06-13T01:39:50.157Z,60.30
2018-06-13T01:42:18.934Z,60.60
2018-06-13T01:44:47.773Z,60.50
2018-06-13T01:47:16.919Z,60.70
2018-06-13T01:49:45.991Z,60.90
2018-06-13T01:52:14.853Z,60.80
2018-06-13T01:54:44.055Z,61.00
2018-06-13T01:57:12.905Z,60.50
2018-06-13T01:59:41.700Z,60.60
2018-06-13T02:02:10.610Z,60.40
2018-06-13T02:04:39.976Z,61.40
2018-06-13T02:07:09.232Z,61.60
2018-06-13T02:09:38.104Z,61.30
2018-06-13T02:12:07.266Z,61.60
2018-06-13T02:14:36.081Z,61.80
2018-06-13T02:19:33.626Z,63.10
2018-06-13T02:22:02.399Z,62.50
2018-06-13T02:24:31.572Z,62.70
2018-06-13T02:27:00.361Z,63.20
2018-06-13T02:29:29.150Z,63.40
2018-06-13T02:31:58.091Z,63.30
2018-06-13T02:34:26.887Z,63.00
2018-06-13T02:36:55.623Z,64.10
2018-06-13T02:39:24.750Z,62.90
2018-06-13T02:41:53.535Z,63.50
2018-06-13T02:44:22.637Z,63.50
2018-06-13T02:46:51.409Z,63.40
2018-06-13T02:49:20.227Z,63.90
2018-06-13T02:51:49.102Z,63.90
2018-06-13T02:54:18.050Z,64.50
2018-06-13T02:56:47.252Z,64.60
2018-06-13T02:59:16.280Z,64.50
2018-06-13T03:01:45.201Z,64.70
2018-06-13T03:04:14.742Z,65.00
2018-06-13T03:06:43.632Z,64.90
2018-06-13T03:09:12.740Z,65.00
2018-06-13T03:11:41.540Z,65.60
2018-06-13T03:14:11.034Z,65.60
2018-06-13T03:16:39.778Z,66.00
2018-06-13T03:19:08.664Z,66.40
2018-06-13T03:21:37.448Z,65.50
2018-06-13T03:24:06.177Z,65.90
2018-06-13T03:26:34.938Z,66.30
2018-06-13T03:29:04.413Z,66.20
2018-06-13T03:31:33.164Z,65.70
2018-06-13T03:34:01.914Z,65.50
2018-06-13T03:36:30.685Z,65.70
2018-06-13T03:38:59.765Z,65.70
2018-06-13T03:41:28.930Z,65.50
2018-06-13T03:43:58.121Z,65.50
2018-06-13T03:46:26.944Z,65.20
2018-06-13T03:48:55.950Z,65.90
2018-06-13T03:51:24.899Z,66.30
2018-06-13T03:53:54.056Z,66.80
2018-06-13T03:56:22.886Z,67.30
2018-06-13T04:01:26.825Z,67.10
2018-06-13T04:03:55.672Z,67.50
2018-06-13T04:06:24.545Z,67.40
2018-06-13T04:08:53.326Z,67.40
2018-06-13T04:11:22.060Z,67.00
2018-06-13T04:13:50.862Z,66.40
2018-06-13T04:16:19.943Z,66.90
2018-06-13T04:18:48.737Z,67.60
2018-06-13T04:21:17.875Z,67.40
2018-06-13T04:23:46.603Z,67.20
2018-06-13T04:26:15.345Z,67.20
2018-06-13T04:28:44.452Z,67.40
2018-06-13T04:31:13.577Z,67.70
2018-06-13T04:33:42.367Z,67.90
2018-06-13T04:36:11.156Z,68.40
2018-06-13T04:38:39.959Z,67.60
2018-06-13T04:41:08.774Z,67.30
2018-06-13T04:43:37.542Z,66.90
2018-06-13T04:46:06.844Z,67.40
2018-06-13T04:48:36.056Z,66.70
2018-06-13T04:51:05.256Z,66.30
2018-06-13T04:53:34.459Z,66.50
2018-06-13T04:56:03.846Z,65.80
2018-06-13T04:58:32.635Z,65.30
2018-06-13T05:01:01.422Z,65.40
2018-06-13T05:03:30.213Z,65.10
2018-06-13T05:05:59.292Z,64.20
2018-06-13T05:08:28.021Z,62.70
2018-06-13T05:10:56.913Z,63.60
2018-06-13T05:13:25.667Z,63.40
2018-06-13T05:15:54.434Z,63.50
2018-06-13T05:18:23.222Z,63.30
2018-06-13T05:20:52.037Z,62.80
2018-06-13T05:23:20.809Z,63.30
2018-06-13T05:25:49.574Z,62.10
2018-06-13T05:28:18.617Z,61.80
2018-06-13T05:30:47.732Z,62.10
2018-06-13T05:33:16.549Z,61.30
2018-06-13T05:35:45.432Z,62.30
2018-06-13T05:38:14.693Z,63.10
2018-06-13T05:40:43.720Z,62.80
2018-06-13T05:43:12.721Z,64.00
2018-06-13T05:45:43.154Z,64.30
2018-06-13T05:48:12.731Z,64.80
2018-06-13T05:50:41.717Z,65.20
2018-06-13T05:53:10.618Z,64.00
2018-06-13T05:55:39.786Z,64.20
2018-06-13T05:58:09.408Z,63.20
2018-06-13T06:00:38.250Z,62.90
2018-06-13T06:03:07.357Z,62.70
2018-06-13T06:05:36.069Z,64.60
2018-06-13T06:08:05.276Z,63.80
2018-06-13T06:10:34.117Z,63.70
2018-06-13T06:13:03.346Z,64.40
2018-06-13T06:15:32.436Z,64.40
2018-06-13T06:18:01.245Z,64.60
2018-06-13T06:20:30.059Z,64.20
2018-06-13T06:22:59.298Z,64.40
2018-06-13T06:25:28.137Z,64.50
2018-06-13T06:27:56.898Z,65.90
2018-06-13T06:30:26.146Z,63.70
2018-06-13T06:32:55.060Z,64.10
2018-06-13T06:35:24.034Z,64.80
2018-06-13T06:37:53.130Z,64.40
2018-06-13T06:40:22.109Z,64.30
2018-06-13T06:42:51.413Z,64.00
2018-06-13T06:45:20.368Z,63.50
2018-06-13T06:47:49.308Z,63.30
2018-06-13T06:50:18.259Z,62.20
2018-06-13T06:52:47.417Z,62.10
2018-06-13T06:55:16.940Z,62.00
2018-06-13T06:57:45.853Z,61.50
2018-06-13T07:00:14.597Z,61.50
2018-06-13T07:02:43.752Z,60.20
2018-06-13T07:05:12.657Z,59.20
2018-06-13T07:07:41.468Z,58.40
2018-06-13T07:10:10.313Z,58.10
2018-06-13T07:12:39.226Z,58.10
2018-06-13T07:15:08.352Z,57.80
2018-06-13T07:17:37.134Z,56.90
2018-06-13T07:20:06.037Z,56.00
2018-06-13T07:22:34.912Z,55.80
2018-06-13T07:25:04.187Z,54.90
2018-06-13T07:27:33.133Z,54.60
2018-06-13T07:30:02.653Z,55.80
2018-06-13T07:32:33.412Z,55.50
2018-06-13T07:35:02.305Z,56.20
2018-06-13T07:37:31.323Z,55.90
2018-06-13T07:40:01.138Z,56.40
2018-06-13T07:42:30.021Z,56.30
2018-06-13T07:44:59.203Z,55.10
2018-06-13T07:47:27.944Z,53.80
2018-06-13T07:49:56.740Z,49.90
2018-06-13T07:52:25.551Z,49.60
2018-06-13T07:54:54.333Z,47.40
2018-06-13T07:57:23.483Z,49.80
2018-06-13T07:59:52.290Z,44.00
2018-06-13T08:02:21.114Z,38.50
2018-06-13T08:04:50.036Z,41.30
2018-06-13T08:07:18.816Z,38.50
2018-06-13T08:09:47.573Z,37.30
2018-06-13T08:12:16.389Z,43.70
2018-06-13T08:14:45.244Z,47.60
2018-06-13T08:17:14.439Z,50.90
2018-06-13T08:19:43.336Z,52.70
2018-06-13T08:22:13.366Z,53.20
2018-06-13T08:24:52.733Z,51.70
2018-06-13T08:27:21.837Z,50.40
2018-06-13T08:29:50.650Z,49.70
2018-06-13T08:32:19.437Z,50.30
2018-06-13T08:34:48.305Z,50.60
2018-06-13T08:37:17.185Z,51.50
2018-06-13T08:39:46.068Z,51.20
2018-06-13T08:42:15.251Z,48.90
2018-06-13T08:44:44.551Z,50.00
2018-06-13T08:47:13.813Z,51.10
2018-06-13T08:49:43.327Z,53.80
2018-06-13T08:52:12.459Z,54.00
2018-06-13T08:54:41.532Z,54.50
2018-06-13T08:57:10.460Z,54.10
2018-06-13T08:59:39.657Z,54.60
2018-06-13T09:02:08.498Z,54.70
2018-06-13T09:04:37.756Z,53.70
2018-06-13T09:07:06.576Z,54.20
2018-06-13T09:09:35.435Z,54.00
2018-06-13T09:12:04.615Z,53.70
2018-06-13T09:14:33.523Z,52.90
2018-06-13T09:17:02.924Z,54.00
2018-06-13T09:19:32.046Z,53.90
2018-06-13T09:22:00.878Z,52.60
2018-06-13T09:24:30.334Z,52.20
2018-06-13T09:26:59.398Z,50.20
2018-06-13T09:29:28.157Z,50.10
2018-06-13T09:31:57.562Z,50.40
2018-06-13T09:34:26.379Z,50.50
2018-06-13T09:36:55.236Z,51.30
2018-06-13T09:39:24.081Z,51.70
2018-06-13T09:41:58.373Z,52.40
2018-06-13T09:44:27.545Z,52.50
2018-06-13T09:46:56.667Z,53.20
2018-06-13T09:49:26.020Z,54.50
2018-06-13T09:51:54.960Z,54.70
2018-06-13T09:54:24.308Z,54.70
2018-06-13T09:56:53.800Z,54.80
2018-06-13T09:59:23.096Z,55.60
2018-06-13T10:01:57.676Z,55.40
2018-06-13T10:04:26.689Z,55.90
2018-06-13T10:06:56.116Z,56.30
2018-06-13T10:09:25.052Z,56.90
2018-06-13T10:11:53.884Z,57.50
2018-06-13T10:14:22.825Z,56.90
2018-06-13T10:16:51.983Z,56.60
2018-06-13T10:19:21.137Z,57.10
2018-06-13T10:21:49.934Z,56.10
2018-06-13T10:24:19.104Z,53.80
2018-06-13T10:26:47.897Z,53.00
2018-06-13T10:29:16.723Z,51.90
2018-06-13T10:31:45.527Z,51.90
2018-06-13T10:34:14.307Z,52.50
2018-06-13T10:36:43.253Z,51.70
2018-06-13T10:39:12.414Z,51.50
2018-06-13T10:41:41.220Z,51.10
2018-06-13T10:44:10.017Z,50.00
2018-06-13T10:46:38.850Z,50.90
2018-06-13T10:49:07.748Z,50.60
2018-06-13T10:51:36.845Z,51.50
2018-06-13T10:54:06.287Z,51.00
2018-06-13T10:56:35.134Z,50.70
2018-06-13T10:59:04.201Z,50.10
2018-06-13T11:01:33.098Z,49.70
2018-06-13T11:04:02.280Z,50.00
2018-06-13T11:06:32.038Z,50.30
2018-06-13T11:09:01.280Z,51.80
2018-06-13T11:11:30.224Z,51.40
2018-06-13T11:13:59.018Z,52.10
2018-06-13T11:16:27.791Z,54.20
2018-06-13T11:18:57.024Z,54.50
2018-06-13T11:21:25.826Z,54.40
2018-06-13T11:23:54.608Z,54.00
2018-06-13T11:26:23.378Z,54.80
2018-06-13T11:28:52.547Z,55.50
2018-06-13T11:31:21.684Z,56.10
2018-06-13T11:33:50.488Z,57.10
2018-06-13T11:36:19.553Z,57.70
2018-06-13T11:38:48.656Z,57.70
2018-06-13T11:41:17.676Z,58.00
2018-06-13T11:43:46.545Z,58.00
2018-06-13T11:46:15.375Z,57.50
2018-06-13T11:48:44.778Z,57.30
2018-06-13T11:51:14.139Z,57.60
2018-06-13T11:53:43.494Z,57.50
2018-06-13T11:56:13.290Z,58.80
2018-06-13T11:58:42.872Z,58.10
2018-06-13T12:01:11.792Z,56.90
2018-06-13T12:03:40.652Z,57.20
2018-06-13T12:06:10.115Z,57.30
2018-06-13T12:08:39.098Z,56.60
2018-06-13T12:11:07.936Z,56.70
2018-06-13T12:13:37.023Z,57.10
2018-06-13T12:18:34.613Z,56.50
2018-06-13T12:21:04.153Z,56.70
2018-06-13T12:23:32.974Z,56.40
2018-06-13T12:26:01.799Z,57.10
2018-06-13T12:28:31.620Z,57.20
2018-06-13T12:31:01.448Z,59.20
2018-06-13T12:33:30.563Z,58.50
2018-06-13T12:35:59.431Z,58.10
2018-06-13T12:38:28.637Z,57.60
2018-06-13T12:40:57.597Z,57.50
2018-06-13T12:43:26.776Z,57.50
2018-06-13T12:45:55.981Z,58.00
2018-06-13T12:48:24.896Z,58.80
2018-06-13T12:50:54.161Z,58.90
2018-06-13T12:53:23.223Z,59.40
2018-06-13T12:55:52.242Z,59.20
2018-06-13T12:58:21.284Z,58.70
2018-06-13T13:00:50.673Z,58.40
2018-06-13T13:03:19.564Z,58.00
2018-06-13T13:05:48.440Z,58.30
2018-06-13T13:08:17.578Z,57.50
2018-06-13T13:10:47.004Z,57.30
2018-06-13T13:13:16.121Z,57.90
2018-06-13T13:15:45.222Z,58.30
2018-06-13T13:18:14.018Z,57.40
2018-06-13T13:20:42.858Z,58.00
2018-06-13T13:23:12.233Z,57.50
2018-06-13T13:25:41.476Z,57.40
2018-06-13T13:28:10.265Z,58.30
2018-06-13T13:30:39.229Z,58.10
2018-06-13T13:33:08.032Z,57.40
2018-06-13T13:35:36.945Z,57.10
2018-06-13T13:38:06.501Z,57.40
2018-06-13T13:40:35.495Z,57.60
2018-06-13T13:43:04.460Z,57.20
2018-06-13T13:45:33.803Z,57.50
2018-06-13T13:48:02.846Z,58.80
2018-06-13T13:50:31.742Z,58.60
2018-06-13T13:53:00.677Z,59.00
2018-06-13T13:55:29.598Z,58.50
2018-06-13T13:57:59.246Z,59.30
2018-06-13T14:00:28.053Z,60.20
2018-06-13T14:02:56.868Z,59.40
2018-06-13T14:05:26.327Z,59.50
2018-06-13T14:07:55.087Z,59.90
2018-06-13T14:10:24.539Z,60.10
2018-06-13T14:12:53.700Z,60.80
2018-06-13T14:15:22.851Z,59.50
2018-06-13T14:17:51.647Z,59.70
2018-06-13T14:20:20.428Z,58.90
2018-06-13T14:22:49.170Z,59.30
2018-06-13T14:25:18.004Z,59.60
2018-06-13T14:27:46.789Z,60.40
2018-06-13T14:30:15.987Z,60.60
2018-06-13T14:32:45.189Z,60.10
2018-06-13T14:35:14.007Z,60.70
2018-06-13T14:37:43.121Z,60.50
2018-06-13T14:40:12.400Z,60.70
2018-06-13T14:42:41.628Z,60.50
2018-06-13T14:45:10.871Z,60.50
2018-06-13T14:47:40.276Z,60.40
2018-06-13T14:50:09.368Z,59.60
2018-06-13T14:52:38.455Z,59.70
2018-06-13T14:55:07.618Z,59.60
2018-06-13T14:57:36.403Z,60.20
2018-06-13T15:00:05.344Z,61.60
2018-06-13T15:02:34.115Z,62.10
2018-06-13T15:05:03.285Z,60.70
2018-06-13T15:07:32.770Z,59.80
2018-06-13T15:10:01.905Z,60.40
2018-06-13T15:12:30.987Z,61.00
2018-06-13T15:14:59.745Z,60.90
2018-06-13T15:17:29.233Z,61.30
2018-06-13T15:19:58.532Z,60.70
2018-06-13T15:22:27.636Z,61.10
2018-06-13T15:24:56.791Z,61.20
2018-06-13T15:27:25.953Z,62.00
2018-06-13T15:29:54.935Z,62.10
2018-06-13T15:32:23.725Z,64.50
2018-06-13T15:34:52.662Z,63.80
2018-06-13T15:37:22.083Z,64.10
2018-06-13T15:39:51.304Z,63.40
2018-06-13T15:42:20.757Z,62.60
2018-06-13T15:44:50.103Z,62.00
2018-06-13T15:47:20.637Z,61.90
2018-06-13T15:49:49.548Z,62.10
2018-06-13T15:52:18.438Z,62.30
2018-06-13T15:54:48.342Z,62.40
2018-06-13T15:57:17.890Z,62.70
2018-06-13T15:59:47.144Z,62.90
2018-06-13T16:02:15.963Z,63.60
2018-06-13T16:04:44.861Z,63.40
2018-06-13T16:07:13.660Z,63.50
2018-06-13T16:09:42.751Z,63.30
2018-06-13T16:12:11.597Z,62.90
2018-06-13T16:14:40.831Z,62.10
2018-06-13T16:17:10.045Z,61.70
2018-06-13T16:19:38.924Z,60.90
2018-06-13T16:22:08.054Z,60.60
2018-06-13T16:24:37.229Z,61.20
2018-06-13T16:27:06.093Z,60.80
2018-06-13T16:29:34.878Z,60.10
2018-06-13T16:32:04.103Z,60.10
2018-06-13T16:34:33.306Z,60.10
2018-06-13T16:37:02.231Z,60.50
2018-06-13T16:39:31.658Z,60.10
2018-06-13T16:42:00.605Z,60.50
2018-06-13T16:44:29.861Z,60.20
2018-06-13T16:49:27.835Z,60.90
2018-06-13T16:51:58.159Z,60.60
2018-06-13T16:54:38.527Z,61.30
2018-06-13T16:57:07.469Z,61.00
2018-06-13T16:59:37.125Z,60.40
2018-06-13T17:02:06.810Z,60.90
2018-06-13T17:04:36.340Z,61.90
2018-06-13T17:09:33.751Z,62.10
2018-06-13T17:12:02.644Z,61.70
2018-06-13T17:14:31.512Z,62.10
2018-06-13T17:17:00.554Z,61.90
2018-06-13T17:19:29.432Z,61.40
2018-06-13T17:21:58.276Z,62.10
2018-06-13T17:24:27.478Z,61.60
2018-06-13T17:26:56.292Z,61.70
2018-06-13T17:29:25.120Z,61.30
2018-06-13T17:31:53.967Z,61.90
2018-06-13T17:34:22.804Z,62.10
2018-06-13T17:36:51.956Z,62.00
2018-06-13T17:39:20.741Z,61.70
2018-06-13T17:41:51.144Z,62.70
2018-06-13T17:44:20.077Z,63.20
2018-06-13T17:46:48.901Z,62.40
2018-06-13T17:49:17.738Z,61.90
2018-06-13T17:51:46.679Z,62.30
2018-06-13T17:56:44.315Z,62.40
2018-06-13T17:59:13.669Z,62.00
2018-06-13T18:01:43.302Z,62.20
2018-06-13T18:04:12.329Z,62.20
2018-06-13T18:06:41.366Z,61.50
2018-06-13T18:09:10.830Z,61.80
2018-06-13T18:11:39.853Z,63.80
2018-06-13T18:14:08.668Z,61.50
2018-06-13T18:16:44.766Z,61.90
2018-06-13T18:19:14.233Z,60.60
2018-06-13T18:21:43.238Z,60.70
2018-06-13T18:24:12.322Z,60.40
2018-06-13T18:26:41.603Z,60.80
2018-06-13T18:29:10.579Z,60.50
2018-06-13T18:31:39.454Z,61.70
2018-06-13T18:34:08.285Z,60.50
2018-06-13T18:36:37.959Z,60.90
2018-06-13T18:39:09.807Z,61.10
2018-06-13T18:41:38.648Z,61.70
2018-06-13T18:44:07.758Z,61.60
2018-06-13T18:46:36.586Z,61.90
2018-06-13T18:49:05.477Z,62.00
2018-06-13T18:51:34.285Z,61.30
2018-06-13T18:54:03.487Z,62.40
2018-06-13T18:56:32.620Z,61.00
2018-06-13T18:59:01.480Z,61.70
2018-06-13T19:01:31.022Z,61.30
2018-06-13T19:03:59.980Z,61.20
2018-06-13T19:06:29.106Z,61.40
2018-06-13T19:08:58.019Z,61.30
2018-06-13T19:11:27.057Z,61.00
2018-06-13T19:13:56.352Z,61.30
2018-06-13T19:16:26.043Z,61.20
2018-06-13T19:21:24.004Z,61.30
2018-06-13T19:23:54.150Z,60.60
2018-06-13T19:26:23.729Z,60.60
2018-06-13T19:28:53.164Z,61.10
2018-06-13T19:31:22.293Z,60.60
2018-06-13T19:33:51.344Z,60.70
2018-06-13T19:36:20.385Z,60.90
2018-06-13T19:38:49.779Z,61.80
2018-06-13T19:41:18.811Z,60.80
2018-06-13T19:43:48.110Z,61.60
2018-06-13T19:46:17.192Z,61.70
2018-06-13T19:51:17.633Z,62.00
2018-06-13T19:53:52.122Z,61.80
2018-06-13T19:56:25.150Z,60.90
2018-06-13T19:58:54.918Z,61.90
2018-06-13T20:01:24.059Z,61.40
2018-06-13T20:04:57.753Z,62.70
2018-06-13T20:07:26.733Z,62.00
2018-06-13T20:09:55.648Z,62.10
2018-06-13T20:12:42.527Z,61.60
2018-06-13T20:15:17.239Z,61.30
2018-06-13T20:17:51.706Z,61.60
2018-06-13T20:20:20.810Z,62.50
2018-06-13T20:22:49.731Z,62.30
2018-06-13T20:25:24.339Z,61.90
2018-06-13T20:27:58.756Z,62.00
2018-06-13T20:30:33.154Z,63.10
2018-06-13T20:33:02.108Z,62.80
2018-06-13T20:35:31.588Z,62.10
2018-06-13T20:38:01.644Z,61.80
2018-06-13T20:43:00.412Z,60.30
2018-06-13T20:45:29.299Z,61.00
2018-06-13T20:47:58.658Z,61.90
2018-06-13T20:50:27.577Z,61.50
2018-06-13T20:52:56.372Z,61.60
2018-06-13T20:55:25.167Z,61.50
2018-06-13T20:57:54.403Z,61.80
2018-06-13T21:00:23.280Z,61.90
2018-06-13T21:02:52.183Z,63.00
2018-06-13T21:05:21.710Z,62.60
2018-06-13T21:07:50.542Z,63.10
2018-06-13T21:10:19.465Z,62.50
2018-06-13T21:12:48.631Z,63.30
2018-06-13T21:15:17.599Z,62.20
2018-06-13T21:17:46.657Z,62.10
2018-06-13T21:20:15.976Z,61.60
2018-06-13T21:22:44.915Z,62.30
2018-06-13T21:25:13.951Z,62.50
2018-06-13T21:27:42.959Z,61.50
2018-06-13T21:32:40.780Z,62.10
2018-06-13T21:35:09.640Z,62.20
2018-06-13T21:37:38.998Z,62.00
2018-06-13T21:40:07.954Z,63.00
2018-06-13T21:42:36.994Z,61.70
2018-06-13T21:45:06.318Z,61.80
2018-06-13T21:47:35.101Z,61.50
2018-06-13T21:50:04.136Z,61.80
2018-06-13T21:52:33.176Z,62.70
2018-06-13T21:55:02.257Z,61.70
2018-06-13T21:57:31.501Z,61.70
2018-06-13T22:00:00.426Z,61.30
2018-06-13T22:02:29.694Z,60.60
2018-06-13T22:04:58.867Z,61.00
2018-06-13T22:07:27.679Z,61.50
2018-06-13T22:09:56.791Z,61.90
2018-06-13T22:12:25.706Z,61.80
2018-06-13T22:14:54.990Z,62.20
2018-06-13T22:17:24.363Z,61.80
2018-06-13T22:19:53.587Z,61.20
2018-06-13T22:22:22.850Z,61.10
2018-06-13T22:24:52.096Z,61.40
2018-06-13T22:27:21.578Z,61.60
2018-06-13T22:29:50.808Z,61.50
2018-06-13T22:32:19.851Z,61.40
2018-06-13T22:34:48.693Z,61.10
2018-06-13T22:37:17.804Z,61.10
2018-06-13T22:39:46.547Z,61.50
2018-06-13T22:42:15.642Z,61.30
2018-06-13T22:44:44.609Z,60.80
2018-06-13T22:47:13.380Z,60.60
2018-06-13T22:49:42.143Z,61.50
2018-06-13T22:52:11.841Z,62.20
2018-06-13T22:54:40.848Z,62.00
2018-06-13T22:57:09.619Z,62.70
2018-06-13T22:59:38.517Z,62.30
2018-06-13T23:02:07.311Z,62.00
2018-06-13T23:04:36.450Z,61.80
2018-06-13T23:07:05.599Z,61.70
2018-06-13T23:09:34.762Z,61.90
2018-06-13T23:12:03.692Z,61.40
2018-06-13T23:14:32.890Z,62.00
2018-06-13T23:17:02.092Z,60.80
2018-06-13T23:19:31.070Z,61.50
2018-06-13T23:21:59.980Z,61.60
2018-06-13T23:24:29.112Z,61.10
2018-06-13T23:26:57.938Z,61.30
2018-06-13T23:29:27.146Z,61.10
2018-06-13T23:31:55.890Z,61.10
2018-06-13T23:34:24.674Z,61.40
2018-06-13T23:36:53.584Z,60.50
2018-06-13T23:39:22.701Z,60.70
2018-06-13T23:41:51.889Z,60.50
2018-06-13T23:44:20.993Z,60.80
2018-06-13T23:46:49.788Z,60.80
2018-06-13T23:49:18.667Z,61.00
2018-06-13T23:51:47.449Z,60.70
2018-06-13T23:54:16.201Z,60.50
2018-06-13T23:56:45.028Z,61.40
2018-06-13T23:59:14.131Z,59.70
